Time;durP1;ratioP1;P1;durP2;ratioP2;P2;SDS_P1;SDS_P2;PMS_P1;PMS_P2;Temp;Humidity;BMP_temperature;BMP_pressure;BME280_temperature;BME280_humidity;BME280_pressure;Samples;Min_cycle;Max_cycle;Signal;HPM_P1;HPM_P2
2022/05/22 00:01:50;;;;;;;7.90;4.80;;;15.60;70.70;;;;;;5023074;28;20189;-88
2022/05/22 00:04:16;;;;;;;8.40;3.95;;;15.60;70.40;;;;;;5040299;28;20834;-87
2022/05/22 00:06:42;;;;;;;8.13;4.77;;;15.60;70.60;;;;;;5039579;28;20174;-87
2022/05/22 00:09:07;;;;;;;9.23;5.17;;;15.60;70.40;;;;;;5020736;28;20288;-87
2022/05/22 00:11:34;;;;;;;10.37;4.77;;;15.60;70.50;;;;;;5020739;28;20240;-87
2022/05/22 00:13:59;;;;;;;6.68;4.18;;;15.60;70.90;;;;;;5020061;28;20277;-87
2022/05/22 00:16:37;;;;;;;6.77;4.13;;;15.60;70.80;;;;;;5026165;28;20185;-87
2022/05/22 00:19:27;;;;;;;9.60;4.55;;;15.60;70.70;;;;;;5032904;28;20181;-87
2022/05/22 00:21:53;;;;;;;6.50;4.03;;;15.70;70.30;;;;;;5010573;28;20201;-87
2022/05/22 00:24:25;;;;;;;6.85;4.30;;;15.70;69.20;;;;;;5037323;28;20229;-86
2022/05/22 00:26:51;;;;;;;8.65;4.63;;;15.80;68.20;;;;;;5039736;28;20201;-87
2022/05/22 00:29:18;;;;;;;7.50;4.77;;;15.80;68.30;;;;;;5027271;28;20189;-87
2022/05/22 00:31:45;;;;;;;6.47;4.18;;;15.70;69.60;;;;;;5019380;28;20798;-87
2022/05/22 00:34:11;;;;;;;11.32;4.65;;;15.60;70.20;;;;;;5018855;28;20586;-87
2022/05/22 00:36:37;;;;;;;9.00;4.85;;;15.60;71.00;;;;;;5037055;28;20201;-86
2022/05/22 00:39:04;;;;;;;9.05;5.18;;;15.60;70.80;;;;;;5035282;28;20182;-87
2022/05/22 00:41:31;;;;;;;12.25;5.30;;;15.40;70.80;;;;;;5032131;28;20237;-87
2022/05/22 00:43:57;;;;;;;9.75;5.00;;;15.40;70.80;;;;;;5019421;28;20214;-88
2022/05/22 00:46:24;;;;;;;12.50;5.20;;;15.40;70.90;;;;;;5019252;28;20840;-88
2022/05/22 00:48:55;;;;;;;13.32;5.57;;;15.40;70.50;;;;;;5036596;28;20221;-88
2022/05/22 00:51:31;;;;;;;7.45;5.40;;;15.40;70.10;;;;;;5018830;28;20253;-87
2022/05/22 00:54:25;;;;;;;9.63;4.63;;;15.40;70.40;;;;;;5018569;28;20165;-88
2022/05/22 00:56:59;;;;;;;8.98;5.30;;;15.40;70.80;;;;;;5036466;28;20209;-89
2022/05/22 00:59:29;;;;;;;12.18;5.82;;;15.20;71.40;;;;;;5018887;28;20180;-88
2022/05/22 01:01:59;;;;;;;11.50;5.93;;;15.20;71.80;;;;;;5019010;28;20174;-88
2022/05/22 01:04:28;;;;;;;8.27;6.10;;;15.20;71.40;;;;;;5035558;28;20259;-88
2022/05/22 01:06:54;;;;;;;8.98;4.82;;;15.20;71.90;;;;;;5031577;28;20202;-88
2022/05/22 01:09:20;;;;;;;9.48;6.38;;;15.20;72.80;;;;;;5056295;28;20193;-88
2022/05/22 01:11:50;;;;;;;11.63;6.57;;;15.20;72.60;;;;;;5039583;28;20261;-88
2022/05/22 01:14:22;;;;;;;10.77;6.25;;;15.10;72.80;;;;;;5050499;28;20417;-88
2022/05/22 01:16:51;;;;;;;9.27;5.72;;;15.10;72.70;;;;;;5027881;28;20174;-88
2022/05/22 01:19:23;;;;;;;13.10;7.03;;;15.10;72.20;;;;;;5048412;28;20185;-87
2022/05/22 01:21:54;;;;;;;9.93;5.82;;;15.10;72.20;;;;;;5017748;28;20197;-87
2022/05/22 01:24:21;;;;;;;9.55;5.40;;;15.10;72.70;;;;;;5036436;28;20259;-87
2022/05/22 01:26:48;;;;;;;9.18;6.53;;;15.00;72.40;;;;;;5019327;28;20181;-88
2022/05/22 01:29:14;;;;;;;11.65;6.88;;;14.90;72.90;;;;;;5020144;28;20186;-87
2022/05/22 01:31:41;;;;;;;10.75;6.60;;;14.90;73.50;;;;;;5020086;28;20178;-87
2022/05/22 01:34:06;;;;;;;12.30;7.55;;;14.80;73.80;;;;;;5036986;28;20192;-87
2022/05/22 01:36:32;;;;;;;11.10;7.20;;;14.80;74.40;;;;;;5018786;28;20748;-87
2022/05/22 01:38:58;;;;;;;13.90;6.83;;;14.80;75.00;;;;;;5035649;28;20445;-87
2022/05/22 01:41:24;;;;;;;17.57;6.73;;;14.80;75.20;;;;;;5017820;28;20293;-87
2022/05/22 01:43:49;;;;;;;8.53;5.43;;;14.80;74.50;;;;;;5035126;28;20197;-87
2022/05/22 01:46:15;;;;;;;8.57;7.43;;;14.90;74.30;;;;;;5017865;28;20427;-87
2022/05/22 01:48:41;;;;;;;9.47;6.37;;;14.90;73.90;;;;;;5035188;28;20218;-87
2022/05/22 01:51:07;;;;;;;9.47;5.70;;;14.80;74.00;;;;;;5018009;28;20527;-87
2022/05/22 01:53:33;;;;;;;12.90;7.03;;;14.80;74.40;;;;;;5036648;28;20185;-87
2022/05/22 01:55:59;;;;;;;13.68;6.75;;;14.90;73.90;;;;;;5024594;28;20327;-87
2022/05/22 01:58:25;;;;;;;11.10;7.15;;;14.90;73.60;;;;;;5044806;28;20202;-87
2022/05/22 02:00:51;;;;;;;8.93;6.70;;;14.90;74.10;;;;;;5028283;28;20269;-87
2022/05/22 02:03:17;;;;;;;8.50;5.72;;;14.90;73.90;;;;;;5045164;28;20663;-88
2022/05/22 02:05:43;;;;;;;11.13;6.20;;;14.90;73.50;;;;;;5018316;28;20693;-88
2022/05/22 02:08:19;;;;;;;9.43;6.30;;;14.90;73.60;;;;;;5034992;28;20212;-88
2022/05/22 02:10:46;;;;;;;9.25;5.65;;;14.90;73.40;;;;;;5017406;28;20413;-88
2022/05/22 02:13:16;;;;;;;12.52;6.95;;;14.90;73.40;;;;;;5017573;28;20205;-88
2022/05/22 02:15:43;;;;;;;12.13;6.30;;;14.80;74.00;;;;;;5018027;28;20178;-87
2022/05/22 02:18:09;;;;;;;12.95;6.68;;;14.80;74.80;;;;;;5039320;28;20197;-89
2022/05/22 02:20:35;;;;;;;11.23;6.43;;;14.80;75.40;;;;;;5022055;28;20184;-89
2022/05/22 02:23:01;;;;;;;13.50;7.10;;;14.80;75.90;;;;;;5017253;28;20184;-88
2022/05/22 02:25:30;;;;;;;9.07;5.93;;;14.70;76.20;;;;;;5004498;28;20213;-87
2022/05/22 02:27:57;;;;;;;8.23;5.63;;;14.70;75.90;;;;;;5017832;28;20193;-88
2022/05/22 02:30:27;;;;;;;8.68;5.30;;;14.80;75.60;;;;;;5051850;28;20210;-87
2022/05/22 02:32:52;;;;;;;10.13;5.95;;;14.90;75.30;;;;;;5032490;28;20177;-88
2022/05/22 02:35:19;;;;;;;11.20;6.10;;;14.80;74.90;;;;;;5017364;28;20268;-88
2022/05/22 02:37:47;;;;;;;9.35;6.45;;;14.90;74.80;;;;;;5000839;28;20202;-87
2022/05/22 02:40:14;;;;;;;13.43;6.78;;;14.90;75.20;;;;;;5018444;28;20186;-88
2022/05/22 02:42:46;;;;;;;11.75;6.85;;;14.80;76.00;;;;;;5027960;28;20216;-88
2022/05/22 02:45:17;;;;;;;8.07;6.70;;;14.80;76.20;;;;;;5017360;28;20216;-88
2022/05/22 02:47:42;;;;;;;7.60;6.07;;;14.80;76.10;;;;;;5007446;28;20674;-88
2022/05/22 02:50:11;;;;;;;14.87;6.77;;;14.80;75.40;;;;;;5017700;28;20205;-88
2022/05/22 02:52:36;;;;;;;10.45;6.50;;;14.80;75.10;;;;;;5018249;28;20181;-88
2022/05/22 02:55:03;;;;;;;8.30;5.60;;;14.90;75.00;;;;;;5022553;28;20189;-89
2022/05/22 02:57:35;;;;;;;7.55;5.60;;;14.80;75.00;;;;;;5031672;28;20201;-88
2022/05/22 03:00:05;;;;;;;10.88;5.97;;;14.80;76.10;;;;;;5030955;28;20272;-88
2022/05/22 03:02:31;;;;;;;8.30;5.63;;;14.70;75.40;;;;;;5015172;28;20244;-88
2022/05/22 03:04:56;;;;;;;14.63;6.47;;;14.70;75.50;;;;;;5018075;28;21828;-88
2022/05/22 03:07:22;;;;;;;9.30;6.10;;;14.60;76.10;;;;;;5013508;28;20231;-88
2022/05/22 03:09:48;;;;;;;9.73;6.18;;;14.60;76.40;;;;;;5000661;28;20186;-88
2022/05/22 03:12:22;;;;;;;14.30;5.90;;;14.60;76.20;;;;;;5008038;28;20317;-88
2022/05/22 03:14:51;;;;;;;9.20;5.85;;;14.60;75.90;;;;;;5033988;28;21061;-89
2022/05/22 03:17:17;;;;;;;9.32;5.00;;;14.50;76.00;;;;;;5016165;28;20232;-89
2022/05/22 03:19:43;;;;;;;8.13;5.95;;;14.50;76.30;;;;;;4997938;28;20190;-89
2022/05/22 03:22:11;;;;;;;9.53;4.50;;;14.40;76.30;;;;;;5001983;28;20181;-89
2022/05/22 03:24:38;;;;;;;8.43;5.82;;;14.40;76.30;;;;;;5033840;28;20197;-89
2022/05/22 03:27:06;;;;;;;7.22;4.90;;;14.40;76.30;;;;;;5016198;28;20202;-89
2022/05/22 03:29:32;;;;;;;12.23;6.47;;;14.40;76.90;;;;;;5015390;28;20232;-88
2022/05/22 03:31:57;;;;;;;8.63;6.40;;;14.40;76.80;;;;;;5002759;28;20507;-88
2022/05/22 03:34:24;;;;;;;8.57;5.60;;;14.30;76.80;;;;;;5018083;28;20815;-89
2022/05/22 03:36:50;;;;;;;6.93;5.57;;;14.30;76.90;;;;;;5019653;28;20412;-89
2022/05/22 03:39:16;;;;;;;8.30;5.60;;;14.30;77.00;;;;;;5010928;28;20187;-88
2022/05/22 03:41:42;;;;;;;9.93;5.50;;;14.20;77.20;;;;;;5012089;28;20288;-88
2022/05/22 03:44:08;;;;;;;8.57;5.27;;;14.30;77.50;;;;;;5014953;28;20202;-88
2022/05/22 03:46:34;;;;;;;9.80;6.10;;;14.30;77.50;;;;;;5017925;28;20228;-88
2022/05/22 03:49:00;;;;;;;6.78;5.68;;;14.30;77.50;;;;;;5005294;28;20417;-88
2022/05/22 03:51:26;;;;;;;10.50;6.32;;;14.30;77.50;;;;;;5019693;28;20184;-87
2022/05/22 03:53:54;;;;;;;12.30;7.20;;;14.20;77.70;;;;;;5017904;28;20186;-88
2022/05/22 03:56:20;;;;;;;9.45;6.00;;;14.20;78.60;;;;;;5006243;28;20178;-88
2022/05/22 03:58:46;;;;;;;8.60;6.05;;;14.10;78.70;;;;;;5010884;28;20212;-89
2022/05/22 04:01:13;;;;;;;12.27;6.50;;;14.10;79.00;;;;;;5014331;28;20183;-88
2022/05/22 04:03:39;;;;;;;10.38;6.93;;;14.10;79.00;;;;;;5006157;28;20213;-89
2022/05/22 04:06:12;;;;;;;13.73;6.77;;;14.10;79.00;;;;;;5029846;28;20217;-89
2022/05/22 04:08:37;;;;;;;10.13;6.38;;;14.10;78.90;;;;;;5038156;28;20206;-90
2022/05/22 04:11:08;;;;;;;19.23;9.10;;;14.20;78.70;;;;;;5050956;28;20197;-85
2022/05/22 04:13:35;;;;;;;11.10;7.50;;;14.20;78.50;;;;;;5040334;28;20421;-86
2022/05/22 04:16:00;;;;;;;10.90;7.30;;;14.20;78.50;;;;;;5012736;28;20182;-87
2022/05/22 04:18:26;;;;;;;7.63;6.23;;;14.20;79.20;;;;;;5027082;28;20210;-85
2022/05/22 04:20:52;;;;;;;9.90;6.70;;;14.30;78.80;;;;;;5036428;28;20178;-86
2022/05/22 04:26:03;;;;;;;14.07;7.20;;;14.30;77.70;;;;;;5037386;28;20196;-86
2022/05/22 04:28:30;;;;;;;9.68;7.07;;;14.40;77.50;;;;;;5017125;28;20213;-87
2022/05/22 04:30:56;;;;;;;11.93;6.72;;;14.50;77.40;;;;;;5050044;28;20174;-84
2022/05/22 04:33:41;;;;;;;10.27;6.65;;;14.50;77.10;;;;;;5035125;28;20634;-86
2022/05/22 04:36:07;;;;;;;10.65;6.60;;;14.60;76.90;;;;;;5041188;28;20173;-86
2022/05/22 04:38:32;;;;;;;8.40;7.07;;;14.60;76.70;;;;;;5024003;28;20205;-86
2022/05/22 04:41:01;;;;;;;10.30;6.70;;;14.70;76.50;;;;;;5025469;28;20495;-86
2022/05/22 04:43:28;;;;;;;9.68;6.68;;;14.80;76.00;;;;;;5017516;28;20630;-85
2022/05/22 04:45:54;;;;;;;14.50;6.40;;;14.90;75.80;;;;;;5018829;28;20209;-87
2022/05/22 04:48:21;;;;;;;10.45;5.57;;;14.90;75.20;;;;;;5036130;28;20190;-87
2022/05/22 04:50:49;;;;;;;8.18;6.25;;;14.90;75.20;;;;;;5027976;28;20246;-87
2022/05/22 04:53:17;;;;;;;14.68;7.30;;;15.00;74.80;;;;;;5019105;28;20208;-87
2022/05/22 04:55:51;;;;;;;7.22;6.32;;;15.00;74.10;;;;;;5018243;28;20542;-87
2022/05/22 04:58:17;;;;;;;9.57;7.78;;;15.00;73.90;;;;;;5007279;28;20244;-86
2022/05/22 05:00:44;;;;;;;10.60;7.65;;;15.20;73.20;;;;;;5008182;28;20252;-87
2022/05/22 05:03:09;;;;;;;13.00;7.15;;;15.20;72.80;;;;;;5017583;28;20224;-86
2022/05/22 05:05:35;;;;;;;11.30;8.20;;;15.30;72.50;;;;;;5028890;28;20679;-86
2022/05/22 05:08:01;;;;;;;12.63;6.93;;;15.20;73.40;;;;;;5019391;28;20762;-87
2022/05/22 05:10:27;;;;;;;13.00;6.72;;;15.30;73.60;;;;;;5007414;28;20422;-87
2022/05/22 05:12:53;;;;;;;16.03;6.97;;;15.40;73.20;;;;;;5012128;28;20182;-86
2022/05/22 05:15:20;;;;;;;13.07;7.50;;;15.40;73.00;;;;;;5031771;28;20520;-86
2022/05/22 05:17:48;;;;;;;9.45;6.88;;;15.60;72.40;;;;;;5013700;28;20197;-87
2022/05/22 05:20:23;;;;;;;9.15;6.97;;;15.70;71.60;;;;;;5014572;28;20186;-86
2022/05/22 05:23:12;;;;;;;14.40;6.35;;;15.90;71.40;;;;;;5012903;28;20231;-86
2022/05/22 05:25:38;;;;;;;10.15;6.45;;;16.50;69.20;;;;;;5011733;28;20248;-87
2022/05/22 05:28:04;;;;;;;8.30;6.03;;;17.00;66.80;;;;;;5009393;28;20225;-87
2022/05/22 05:30:29;;;;;;;9.50;6.87;;;17.30;66.10;;;;;;5013891;28;20568;-87
2022/05/22 05:32:56;;;;;;;10.77;5.90;;;17.80;63.70;;;;;;4998081;28;20516;-88
2022/05/22 05:35:22;;;;;;;7.57;5.65;;;18.40;62.30;;;;;;5023422;28;20213;-87
2022/05/22 05:37:48;;;;;;;8.33;6.13;;;19.00;60.90;;;;;;4998974;28;20579;-87
2022/05/22 05:40:14;;;;;;;9.70;5.83;;;19.40;59.30;;;;;;4998317;28;20448;-88
2022/05/22 05:42:40;;;;;;;12.13;6.63;;;19.80;57.80;;;;;;4999198;28;20179;-89
2022/05/22 05:45:09;;;;;;;8.40;5.80;;;19.90;56.40;;;;;;4999951;28;20485;-88
2022/05/22 05:47:35;;;;;;;12.43;6.63;;;20.10;56.10;;;;;;5020578;28;20942;-88
2022/05/22 05:50:00;;;;;;;6.63;5.17;;;20.20;55.50;;;;;;5009118;28;20953;-88
2022/05/22 05:52:26;;;;;;;9.70;6.10;;;20.30;54.80;;;;;;5019305;28;20179;-88
2022/05/22 05:54:52;;;;;;;9.07;5.33;;;20.40;53.80;;;;;;5020827;28;20428;-87
2022/05/22 05:57:18;;;;;;;6.90;5.50;;;20.50;53.80;;;;;;5012825;28;20980;-88
2022/05/22 05:59:44;;;;;;;9.70;6.13;;;20.80;53.20;;;;;;5022481;28;20190;-87
2022/05/22 06:02:15;;;;;;;8.47;5.30;;;21.00;53.00;;;;;;5022194;28;20228;-88
2022/05/22 06:04:41;;;;;;;11.37;6.10;;;21.30;52.30;;;;;;5018500;28;20446;-88
2022/05/22 06:07:08;;;;;;;7.57;5.00;;;21.50;51.00;;;;;;5010540;28;20443;-88
2022/05/22 06:09:35;;;;;;;7.27;5.50;;;21.70;50.60;;;;;;5030491;28;20407;-89
2022/05/22 06:12:01;;;;;;;8.10;5.10;;;21.80;49.80;;;;;;5051471;28;20438;-88
2022/05/22 06:14:27;;;;;;;8.63;5.33;;;21.90;49.10;;;;;;5037673;28;20448;-90
2022/05/22 06:16:52;;;;;;;8.10;5.40;;;22.00;49.10;;;;;;5010701;28;20526;-89
2022/05/22 06:19:53;;;;;;;9.93;5.50;;;22.10;48.30;;;;;;5023710;28;20270;-89
2022/05/22 06:22:07;;;;;;;9.83;5.50;;;22.10;48.40;;;;;;5037083;28;20302;-90
2022/05/22 06:24:36;;;;;;;10.50;5.70;;;22.30;48.70;;;;;;5019364;28;20972;-89
2022/05/22 06:27:03;;;;;;;7.97;5.13;;;22.30;48.50;;;;;;5022410;28;20784;-90
2022/05/22 06:29:29;;;;;;;11.60;6.13;;;22.30;48.90;;;;;;5020230;28;20431;-88
2022/05/22 06:31:55;;;;;;;12.67;6.60;;;22.30;48.90;;;;;;5016216;28;20420;-89
2022/05/22 06:34:22;;;;;;;6.80;5.23;;;22.30;49.20;;;;;;5034804;28;20797;-89
2022/05/22 06:36:49;;;;;;;8.03;5.17;;;22.50;49.00;;;;;;5015794;28;20178;-89
2022/05/22 06:41:59;;;;;;;11.53;4.70;;;22.60;48.10;;;;;;5034622;28;20443;-87
2022/05/22 06:44:25;;;;;;;7.80;5.20;;;22.60;48.40;;;;;;5015031;28;20995;-89
2022/05/22 06:46:51;;;;;;;9.80;5.50;;;22.90;48.60;;;;;;5015087;28;20639;-89
2022/05/22 06:49:17;;;;;;;9.37;4.63;;;23.20;48.10;;;;;;5015609;28;20593;-89
2022/05/22 06:51:43;;;;;;;10.80;4.93;;;23.40;46.80;;;;;;5016729;28;20257;-89
2022/05/22 06:54:09;;;;;;;7.67;4.90;;;23.60;45.10;;;;;;5034844;28;20417;-88
2022/05/22 06:56:35;;;;;;;8.93;4.93;;;23.70;44.90;;;;;;5017135;28;20427;-88
2022/05/22 06:59:01;;;;;;;10.43;5.03;;;23.80;43.80;;;;;;5035783;28;20594;-87
2022/05/22 07:01:26;;;;;;;8.00;4.80;;;23.80;42.90;;;;;;5036655;28;20256;-88
2022/05/22 07:03:52;;;;;;;11.47;5.00;;;23.70;43.70;;;;;;5018524;28;20190;-89
2022/05/22 07:06:18;;;;;;;11.90;4.40;;;23.70;43.60;;;;;;5019934;28;20170;-88
2022/05/22 07:08:44;;;;;;;9.17;4.50;;;23.70;43.90;;;;;;5025107;28;20434;-89
2022/05/22 07:13:54;;;;;;;6.00;4.03;;;23.90;42.80;;;;;;5049927;28;20197;-89
2022/05/22 07:16:20;;;;;;;7.50;4.20;;;23.80;42.50;;;;;;5036855;28;20424;-90
2022/05/22 07:18:46;;;;;;;7.50;3.87;;;23.70;41.80;;;;;;5037673;28;20543;-88
2022/05/22 07:21:11;;;;;;;6.40;4.37;;;23.40;42.20;;;;;;5039389;28;20797;-90
2022/05/22 07:23:37;;;;;;;7.60;3.43;;;23.10;43.10;;;;;;5040664;28;20424;-89
2022/05/22 07:26:05;;;;;;;7.77;3.50;;;22.80;43.00;;;;;;5036326;28;20181;-88
2022/05/22 07:28:31;;;;;;;5.20;3.40;;;22.60;44.10;;;;;;5029694;28;20213;-88
2022/05/22 07:30:57;;;;;;;8.03;4.80;;;22.30;45.60;;;;;;5045775;28;20436;-87
2022/05/22 07:33:23;;;;;;;8.80;4.40;;;22.20;45.50;;;;;;5047300;28;20439;-89
2022/05/22 07:35:57;;;;;;;7.40;4.43;;;21.80;47.10;;;;;;5029635;28;20421;-89
2022/05/22 07:38:24;;;;;;;9.13;3.20;;;21.70;48.20;;;;;;5028898;28;20537;-89
2022/05/22 07:40:52;;;;;;;6.87;3.60;;;21.60;47.00;;;;;;5046292;28;20431;-89
2022/05/22 07:43:18;;;;;;;9.93;4.30;;;21.40;47.60;;;;;;5027729;28;20428;-87
2022/05/22 07:45:44;;;;;;;6.67;4.00;;;21.30;46.70;;;;;;5020489;28;20456;-88
2022/05/22 07:48:10;;;;;;;6.00;3.27;;;21.10;48.30;;;;;;5043157;28;20823;-88
2022/05/22 07:50:35;;;;;;;13.40;3.40;;;20.90;48.90;;;;;;5032157;28;20413;-89
2022/05/22 07:53:08;;;;;;;9.20;3.70;;;20.80;48.80;;;;;;5024341;28;20427;-90
2022/05/22 07:55:34;;;;;;;8.03;3.57;;;20.80;47.90;;;;;;5022326;28;20204;-91
2022/05/22 07:57:59;;;;;;;8.57;4.10;;;20.70;47.70;;;;;;5040469;28;20447;-90
2022/05/22 08:00:25;;;;;;;8.40;3.80;;;20.70;48.90;;;;;;5022997;28;20716;-90
2022/05/22 08:02:51;;;;;;;8.43;4.13;;;20.60;49.70;;;;;;5048242;28;20249;-89
2022/05/22 08:05:19;;;;;;;9.00;5.10;;;20.60;49.90;;;;;;5019568;28;20217;-89
2022/05/22 08:07:45;;;;;;;11.20;4.30;;;20.60;49.40;;;;;;5020388;28;20224;-89
2022/05/22 08:10:13;;;;;;;9.07;4.60;;;20.70;49.70;;;;;;5040374;28;20421;-90
2022/05/22 08:12:45;;;;;;;7.45;4.75;;;20.80;49.30;;;;;;5021146;28;20405;-90
2022/05/22 08:15:13;;;;;;;9.15;5.32;;;20.70;49.70;;;;;;5019931;28;20173;-89
2022/05/22 08:17:39;;;;;;;12.93;4.80;;;20.70;49.90;;;;;;5030440;28;20197;-90
2022/05/22 08:20:14;;;;;;;8.90;5.20;;;20.70;49.60;;;;;;5020782;28;20967;-90
2022/05/22 08:22:44;;;;;;;10.50;5.10;;;20.60;51.70;;;;;;5021207;28;20174;-89
2022/05/22 08:25:16;;;;;;;9.67;5.23;;;20.70;50.50;;;;;;5021167;28;20243;-90
2022/05/22 08:27:42;;;;;;;12.10;7.10;;;20.80;49.50;;;;;;5021951;28;20527;-89
2022/05/22 08:30:10;;;;;;;11.33;6.00;;;20.80;48.50;;;;;;5022094;28;20279;-89
2022/05/22 08:32:37;;;;;;;16.00;6.50;;;20.80;48.30;;;;;;5036969;28;20412;-89
2022/05/22 08:35:04;;;;;;;9.60;4.90;;;20.80;48.40;;;;;;5018851;28;20448;-87
2022/05/22 08:37:29;;;;;;;12.60;5.70;;;20.70;49.10;;;;;;5019423;28;20980;-88
2022/05/22 08:39:57;;;;;;;16.50;7.30;;;20.70;49.00;;;;;;5002512;28;20447;-89
2022/05/22 08:42:31;;;;;;;15.07;6.30;;;20.70;47.90;;;;;;5037652;28;20158;-88
2022/05/22 08:44:57;;;;;;;7.60;4.72;;;20.50;48.40;;;;;;5038773;28;20212;-89
2022/05/22 08:47:31;;;;;;;9.53;5.60;;;20.50;49.50;;;;;;5021909;28;20193;-90
2022/05/22 08:50:06;;;;;;;10.65;4.80;;;20.50;50.40;;;;;;5014807;28;20169;-89
2022/05/22 08:52:39;;;;;;;7.57;5.07;;;20.50;50.80;;;;;;5020452;28;20176;-90
2022/05/22 08:55:15;;;;;;;9.07;5.85;;;20.60;51.40;;;;;;5032783;28;20897;-90
2022/05/22 09:01:02;;;;;;;9.27;4.87;;;20.70;50.50;;;;;;5037100;28;20211;-89
2022/05/22 09:03:36;;;;;;;16.17;5.68;;;20.70;50.80;;;;;;5017818;28;20431;-90
2022/05/22 09:06:04;;;;;;;9.02;5.45;;;20.60;49.40;;;;;;5010102;28;20224;-90
2022/05/22 09:08:43;;;;;;;15.60;6.10;;;20.70;50.60;;;;;;5014748;28;20222;-88
2022/05/22 09:11:17;;;;;;;17.05;6.75;;;20.60;49.00;;;;;;5037008;28;20183;-88
2022/05/22 09:13:50;;;;;;;11.70;6.30;;;20.30;49.70;;;;;;5023968;28;20170;-90
2022/05/22 09:16:29;;;;;;;9.18;5.70;;;20.10;50.20;;;;;;5027718;28;20298;-90
2022/05/22 09:19:03;;;;;;;7.95;5.32;;;20.20;50.10;;;;;;5043220;28;20209;-90
2022/05/22 09:21:47;;;;;;;10.55;5.60;;;20.10;50.60;;;;;;5025505;28;20177;-91
2022/05/22 09:24:34;;;;;;;11.55;5.63;;;20.20;49.70;;;;;;5034003;28;20193;-91
2022/05/22 09:27:11;;;;;;;11.30;5.20;;;20.30;50.50;;;;;;5016861;28;20197;-91
2022/05/22 09:30:02;;;;;;;10.18;5.00;;;20.40;50.50;;;;;;5025555;28;20245;-91
2022/05/22 09:32:55;;;;;;;10.57;5.55;;;20.30;50.80;;;;;;5043617;28;20174;-91
2022/05/22 09:35:47;;;;;;;9.35;4.20;;;20.10;51.50;;;;;;5020410;28;20193;-90
2022/05/22 09:38:28;;;;;;;8.98;6.00;;;20.00;52.60;;;;;;5055576;28;20232;-91
2022/05/22 09:41:08;;;;;;;11.15;6.20;;;20.30;50.40;;;;;;5046649;28;20178;-90
2022/05/22 09:43:55;;;;;;;15.80;5.90;;;20.40;49.70;;;;;;5030135;28;20205;-90
2022/05/22 09:46:45;;;;;;;14.60;7.45;;;20.40;49.40;;;;;;5037880;28;20178;-90
2022/05/22 09:49:33;;;;;;;11.38;6.00;;;19.90;51.50;;;;;;5027981;28;20183;-88
2022/05/22 09:52:48;;;;;;;9.32;5.45;;;19.90;53.70;;;;;;5018329;28;20178;-91
2022/05/22 09:55:20;;;;;;;8.48;5.40;;;20.30;52.90;;;;;;5004402;28;20185;-91
2022/05/22 09:58:09;;;;;;;10.15;5.63;;;20.60;51.90;;;;;;5036180;28;20228;-91
2022/05/22 10:00:55;;;;;;;7.40;5.93;;;20.70;50.60;;;;;;5039397;28;20186;-90
2022/05/22 10:03:47;;;;;;;12.02;6.25;;;20.70;51.10;;;;;;5039942;28;20436;-90
2022/05/22 10:06:19;;;;;;;10.33;5.50;;;20.80;49.90;;;;;;5035650;28;20170;-91
2022/05/22 10:09:29;;;;;;;7.22;4.40;;;20.70;49.90;;;;;;5020300;28;20457;-90
2022/05/22 10:12:12;;;;;;;9.35;5.47;;;20.70;51.70;;;;;;4932909;29;20325;-91
2022/05/22 10:14:59;;;;;;;11.73;5.60;;;20.90;49.40;;;;;;5029263;28;20263;-90
2022/05/22 10:17:39;;;;;;;12.85;5.68;;;20.90;48.70;;;;;;5018370;28;20444;-90
2022/05/22 10:20:21;;;;;;;9.25;5.55;;;21.00;50.30;;;;;;5018666;28;20193;-92
2022/05/22 10:23:11;;;;;;;14.07;5.28;;;20.80;50.80;;;;;;5016159;28;20178;-91
2022/05/22 10:25:37;;;;;;;9.50;5.35;;;20.80;50.10;;;;;;5018201;28;20206;-90
2022/05/22 10:28:22;;;;;;;11.33;5.60;;;20.80;49.80;;;;;;5035790;28;20244;-91
2022/05/22 10:31:06;;;;;;;17.50;5.37;;;21.10;50.40;;;;;;5020152;28;20181;-91
2022/05/22 10:33:50;;;;;;;6.60;3.90;;;21.40;49.40;;;;;;5023356;28;20447;-91
2022/05/22 10:36:22;;;;;;;6.17;4.50;;;21.60;47.70;;;;;;5018802;28;20413;-92
2022/05/22 10:39:07;;;;;;;5.63;3.50;;;21.60;47.10;;;;;;5001803;28;20448;-90
2022/05/22 10:44:37;;;;;;;8.33;4.13;;;21.60;45.80;;;;;;5054551;28;20486;-89
2022/05/22 10:47:03;;;;;;;9.27;3.87;;;21.50;46.10;;;;;;5038789;28;20454;-91
2022/05/22 10:49:44;;;;;;;5.10;3.30;;;21.20;46.20;;;;;;5036978;28;20420;-92
2022/05/22 10:52:14;;;;;;;6.77;3.43;;;21.40;45.80;;;;;;5037179;28;20455;-90
2022/05/22 10:54:54;;;;;;;11.67;4.60;;;21.50;44.60;;;;;;5025132;28;20413;-92
2022/05/22 10:57:35;;;;;;;8.90;5.50;;;21.50;45.00;;;;;;5031313;28;20464;-92
2022/05/22 11:00:17;;;;;;;6.13;4.57;;;21.50;45.20;;;;;;5022858;28;20495;-91
2022/05/22 11:02:43;;;;;;;6.20;3.90;;;21.50;46.90;;;;;;5022373;28;20427;-91
2022/05/22 11:05:27;;;;;;;5.97;4.33;;;21.50;46.90;;;;;;5035595;28;20524;-89
2022/05/22 11:07:55;;;;;;;8.93;4.37;;;21.40;47.00;;;;;;5037225;28;20487;-90
2022/05/22 11:10:25;;;;;;;7.23;4.43;;;21.50;46.60;;;;;;5021523;28;20443;-90
2022/05/22 11:13:12;;;;;;;9.40;4.17;;;21.50;46.30;;;;;;5013827;28;21079;-89
2022/05/22 11:15:42;;;;;;;17.00;4.27;;;21.30;46.00;;;;;;5021150;28;20425;-89
2022/05/22 11:18:10;;;;;;;7.03;4.17;;;21.50;47.30;;;;;;5015229;28;20510;-90
2022/05/22 11:20:50;;;;;;;10.57;4.97;;;21.60;46.90;;;;;;5012420;28;20420;-90
2022/05/22 11:24:00;;;;;;;8.17;5.53;;;21.70;46.30;;;;;;5031953;28;20416;-91
2022/05/22 11:26:57;;;;;;;7.83;4.60;;;21.70;46.80;;;;;;4966931;28;20956;-91
2022/05/22 11:29:41;;;;;;;7.20;4.13;;;21.60;46.10;;;;;;5010389;28;20532;-90
2022/05/22 11:32:33;;;;;;;7.17;4.57;;;21.50;47.40;;;;;;5016069;28;20875;-90
2022/05/22 11:35:31;;;;;;;8.10;4.83;;;21.50;46.10;;;;;;5005058;28;20417;-90
2022/05/22 11:38:34;;;;;;;9.27;4.53;;;21.60;46.40;;;;;;5033160;28;20523;-92
2022/05/22 11:41:35;;;;;;;9.23;4.40;;;21.60;45.70;;;;;;5018699;28;20424;-91
2022/05/22 11:44:18;;;;;;;8.67;4.60;;;21.40;45.60;;;;;;5054880;28;20907;-91
2022/05/22 11:47:11;;;;;;;7.80;4.57;;;21.50;45.50;;;;;;5031188;28;20428;-92
2022/05/22 11:50:12;;;;;;;8.80;3.63;;;21.60;45.70;;;;;;5036055;28;20908;-91
2022/05/22 11:53:11;;;;;;;6.73;4.00;;;21.70;47.40;;;;;;4978624;28;20433;-91
2022/05/22 11:55:58;;;;;;;5.87;4.17;;;21.90;46.90;;;;;;5003636;28;20529;-91
2022/05/22 11:58:38;;;;;;;11.37;4.63;;;22.00;45.50;;;;;;5001565;28;20556;-91
2022/05/22 12:01:30;;;;;;;6.33;4.57;;;22.00;44.60;;;;;;5031109;28;20408;-90
2022/05/22 12:04:14;;;;;;;7.00;3.47;;;21.80;44.90;;;;;;5027010;28;20428;-91
2022/05/22 12:07:12;;;;;;;7.30;3.97;;;21.70;45.50;;;;;;5050989;28;20436;-91
2022/05/22 12:10:11;;;;;;;5.93;3.70;;;21.40;46.30;;;;;;5037831;28;20480;-90
2022/05/22 12:12:45;;;;;;;8.57;3.00;;;21.70;46.70;;;;;;5053278;28;20419;-89
2022/05/22 12:15:22;;;;;;;4.00;3.43;;;21.90;46.00;;;;;;5056978;28;20440;-91
2022/05/22 12:17:55;;;;;;;10.30;4.00;;;22.00;45.60;;;;;;5026771;28;20508;-90
2022/05/22 12:20:45;;;;;;;6.33;3.60;;;22.20;45.10;;;;;;5025220;28;20550;-91
2022/05/22 12:23:25;;;;;;;5.10;3.20;;;22.40;44.30;;;;;;5046735;28;20525;-90
2022/05/22 12:25:58;;;;;;;5.57;3.40;;;22.40;43.00;;;;;;5021938;28;20527;-91
2022/05/22 12:28:46;;;;;;;4.07;2.47;;;22.40;41.40;;;;;;5008486;28;20448;-91
2022/05/22 12:31:19;;;;;;;6.67;2.83;;;22.20;44.00;;;;;;5020874;28;20483;-91
2022/05/22 12:33:46;;;;;;;9.33;4.10;;;22.20;44.70;;;;;;5039693;28;20421;-92
2022/05/22 12:36:13;;;;;;;6.87;3.23;;;22.30;44.60;;;;;;5021445;28;20436;-92
2022/05/22 12:38:51;;;;;;;7.97;3.73;;;22.40;44.10;;;;;;5032200;28;20432;-91
2022/05/22 12:41:30;;;;;;;7.27;3.83;;;22.50;43.40;;;;;;5021415;28;20418;-91
2022/05/22 12:43:59;;;;;;;6.20;3.70;;;22.50;42.70;;;;;;5021436;28;20507;-92
2022/05/22 12:46:26;;;;;;;6.33;3.80;;;22.40;42.70;;;;;;5022873;28;20505;-91
2022/05/22 12:49:23;;;;;;;11.13;4.33;;;22.40;43.00;;;;;;5040351;28;20482;-92
2022/05/22 12:52:06;;;;;;;6.60;3.47;;;22.50;44.20;;;;;;5022254;28;20409;-92
2022/05/22 12:54:35;;;;;;;7.60;3.60;;;22.60;43.20;;;;;;5021934;28;20478;-92
2022/05/22 12:57:10;;;;;;;7.07;3.57;;;22.70;44.20;;;;;;5009279;28;20440;-91
2022/05/22 12:59:36;;;;;;;7.40;3.53;;;22.80;43.80;;;;;;5024555;28;20424;-92
2022/05/22 13:02:04;;;;;;;7.27;3.93;;;22.80;43.90;;;;;;5032041;28;20435;-91
2022/05/22 13:04:52;;;;;;;4.70;3.60;;;22.90;42.60;;;;;;5024237;28;20479;-91
2022/05/22 13:07:31;;;;;;;8.17;3.87;;;22.90;41.80;;;;;;5036003;28;21029;-92
2022/05/22 13:09:57;;;;;;;10.00;4.23;;;22.80;42.20;;;;;;5030807;28;20895;-91
2022/05/22 13:12:32;;;;;;;8.60;3.80;;;22.80;42.60;;;;;;5022476;28;20421;-91
2022/05/22 13:15:04;;;;;;;3.90;2.80;;;22.80;43.50;;;;;;5040275;28;20455;-91
2022/05/22 13:17:50;;;;;;;6.23;3.27;;;22.90;40.70;;;;;;5039517;28;20804;-91
2022/05/22 13:20:35;;;;;;;4.50;3.40;;;23.00;39.40;;;;;;5023232;28;20424;-91
2022/05/22 13:23:05;;;;;;;5.73;3.87;;;22.90;39.70;;;;;;5023281;28;20432;-92